sensor_id;sensor_type;location;lat;lon;timestamp;P1;durP1;ratioP1;P2;durP2;ratioP2
75818;SDS011;64453;51.944;9.796;2023-11-21T00:02:26;9.80;;;4.23;;
75818;SDS011;64453;51.944;9.796;2023-11-21T00:04:53;3.53;;;3.23;;
75818;SDS011;64453;51.944;9.796;2023-11-21T00:07:20;3.47;;;3.17;;
75818;SDS011;64453;51.944;9.796;2023-11-21T00:09:47;5.10;;;3.60;;
75818;SDS011;64453;51.944;9.796;2023-11-21T00:12:15;4.33;;;3.00;;
75818;SDS011;64453;51.944;9.796;2023-11-21T00:14:41;7.03;;;3.73;;
75818;SDS011;64453;51.944;9.796;2023-11-21T00:17:09;4.50;;;3.50;;
75818;SDS011;64453;51.944;9.796;2023-11-21T00:19:37;3.40;;;3.10;;
75818;SDS011;64453;51.944;9.796;2023-11-21T00:22:04;3.63;;;2.80;;
75818;SDS011;64453;51.944;9.796;2023-11-21T00:24:32;4.83;;;3.67;;
75818;SDS011;64453;51.944;9.796;2023-11-21T00:26:59;5.20;;;3.27;;
75818;SDS011;64453;51.944;9.796;2023-11-21T00:29:26;4.90;;;2.93;;
75818;SDS011;64453;51.944;9.796;2023-11-21T00:31:53;2.83;;;2.60;;
75818;SDS011;64453;51.944;9.796;2023-11-21T00:34:20;3.60;;;3.30;;
75818;SDS011;64453;51.944;9.796;2023-11-21T00:36:48;5.50;;;5.00;;
75818;SDS011;64453;51.944;9.796;2023-11-21T00:39:15;7.23;;;4.80;;
75818;SDS011;64453;51.944;9.796;2023-11-21T00:41:41;7.80;;;4.93;;
75818;SDS011;64453;51.944;9.796;2023-11-21T00:44:09;13.80;;;5.57;;
75818;SDS011;64453;51.944;9.796;2023-11-21T00:46:37;5.80;;;4.97;;
75818;SDS011;64453;51.944;9.796;2023-11-21T00:49:04;5.00;;;4.50;;
75818;SDS011;64453;51.944;9.796;2023-11-21T00:51:31;4.77;;;4.07;;
75818;SDS011;64453;51.944;9.796;2023-11-21T00:53:59;5.23;;;3.90;;
75818;SDS011;64453;51.944;9.796;2023-11-21T00:56:26;8.70;;;4.17;;
75818;SDS011;64453;51.944;9.796;2023-11-21T00:58:53;7.93;;;3.43;;
75818;SDS011;64453;51.944;9.796;2023-11-21T01:01:20;4.07;;;3.67;;
75818;SDS011;64453;51.944;9.796;2023-11-21T01:03:49;5.77;;;4.20;;
75818;SDS011;64453;51.944;9.796;2023-11-21T01:06:16;7.90;;;4.07;;
75818;SDS011;64453;51.944;9.796;2023-11-21T01:08:44;5.03;;;3.63;;
75818;SDS011;64453;51.944;9.796;2023-11-21T01:11:13;5.20;;;3.63;;
75818;SDS011;64453;51.944;9.796;2023-11-21T01:13:40;4.57;;;4.13;;
75818;SDS011;64453;51.944;9.796;2023-11-21T01:16:08;4.07;;;3.77;;
75818;SDS011;64453;51.944;9.796;2023-11-21T01:18:35;3.93;;;3.50;;
75818;SDS011;64453;51.944;9.796;2023-11-21T01:21:02;4.33;;;3.23;;
75818;SDS011;64453;51.944;9.796;2023-11-21T01:23:30;8.80;;;5.07;;
75818;SDS011;64453;51.944;9.796;2023-11-21T01:25:57;3.77;;;3.43;;
75818;SDS011;64453;51.944;9.796;2023-11-21T01:28:25;4.53;;;4.13;;
75818;SDS011;64453;51.944;9.796;2023-11-21T01:30:53;4.37;;;3.97;;
75818;SDS011;64453;51.944;9.796;2023-11-21T01:33:21;8.13;;;4.30;;
75818;SDS011;64453;51.944;9.796;2023-11-21T01:35:50;7.50;;;4.73;;
75818;SDS011;64453;51.944;9.796;2023-11-21T01:38:20;7.20;;;4.00;;
75818;SDS011;64453;51.944;9.796;2023-11-21T01:40:47;6.00;;;3.90;;
75818;SDS011;64453;51.944;9.796;2023-11-21T01:43:14;5.40;;;4.13;;
75818;SDS011;64453;51.944;9.796;2023-11-21T01:45:43;8.97;;;4.20;;
75818;SDS011;64453;51.944;9.796;2023-11-21T01:48:11;6.43;;;4.80;;
75818;SDS011;64453;51.944;9.796;2023-11-21T01:50:39;5.03;;;4.17;;
75818;SDS011;64453;51.944;9.796;2023-11-21T01:53:06;4.13;;;3.77;;
75818;SDS011;64453;51.944;9.796;2023-11-21T01:55:33;5.40;;;4.20;;
75818;SDS011;64453;51.944;9.796;2023-11-21T01:58:01;5.33;;;4.33;;
75818;SDS011;64453;51.944;9.796;2023-11-21T02:00:28;5.93;;;4.60;;
75818;SDS011;64453;51.944;9.796;2023-11-21T02:02:57;5.17;;;4.37;;
75818;SDS011;64453;51.944;9.796;2023-11-21T02:05:24;6.00;;;3.90;;
75818;SDS011;64453;51.944;9.796;2023-11-21T02:07:52;4.30;;;3.90;;
75818;SDS011;64453;51.944;9.796;2023-11-21T02:10:19;5.90;;;4.43;;
75818;SDS011;64453;51.944;9.796;2023-11-21T02:12:47;4.67;;;4.10;;
75818;SDS011;64453;51.944;9.796;2023-11-21T02:15:15;4.90;;;4.40;;
75818;SDS011;64453;51.944;9.796;2023-11-21T02:17:45;5.10;;;4.60;;
75818;SDS011;64453;51.944;9.796;2023-11-21T02:20:17;5.70;;;4.77;;
75818;SDS011;64453;51.944;9.796;2023-11-21T02:22:49;4.30;;;3.90;;
75818;SDS011;64453;51.944;9.796;2023-11-21T02:25:21;4.37;;;4.00;;
75818;SDS011;64453;51.944;9.796;2023-11-21T02:27:48;6.30;;;4.20;;
75818;SDS011;64453;51.944;9.796;2023-11-21T02:30:15;8.20;;;5.13;;
75818;SDS011;64453;51.944;9.796;2023-11-21T02:32:41;7.07;;;4.67;;
75818;SDS011;64453;51.944;9.796;2023-11-21T02:35:08;8.27;;;4.57;;
75818;SDS011;64453;51.944;9.796;2023-11-21T02:37:37;17.13;;;4.80;;
75818;SDS011;64453;51.944;9.796;2023-11-21T02:40:08;4.90;;;4.30;;
75818;SDS011;64453;51.944;9.796;2023-11-21T02:42:37;4.97;;;4.47;;
75818;SDS011;64453;51.944;9.796;2023-11-21T02:45:06;6.97;;;5.03;;
75818;SDS011;64453;51.944;9.796;2023-11-21T02:47:34;6.10;;;4.83;;
75818;SDS011;64453;51.944;9.796;2023-11-21T02:50:01;7.20;;;4.37;;
75818;SDS011;64453;51.944;9.796;2023-11-21T02:52:28;8.50;;;4.90;;
75818;SDS011;64453;51.944;9.796;2023-11-21T02:54:58;8.60;;;4.30;;
75818;SDS011;64453;51.944;9.796;2023-11-21T02:57:26;8.27;;;5.00;;
75818;SDS011;64453;51.944;9.796;2023-11-21T02:59:53;4.83;;;4.33;;
75818;SDS011;64453;51.944;9.796;2023-11-21T03:02:22;5.03;;;3.83;;
75818;SDS011;64453;51.944;9.796;2023-11-21T03:04:49;7.23;;;4.90;;
75818;SDS011;64453;51.944;9.796;2023-11-21T03:07:16;6.30;;;5.10;;
75818;SDS011;64453;51.944;9.796;2023-11-21T03:09:44;6.43;;;5.50;;
75818;SDS011;64453;51.944;9.796;2023-11-21T03:12:11;7.30;;;5.10;;
75818;SDS011;64453;51.944;9.796;2023-11-21T03:14:40;7.13;;;5.50;;
75818;SDS011;64453;51.944;9.796;2023-11-21T03:17:07;6.00;;;5.40;;
75818;SDS011;64453;51.944;9.796;2023-11-21T03:19:33;6.70;;;4.87;;
75818;SDS011;64453;51.944;9.796;2023-11-21T03:22:00;10.47;;;5.73;;
75818;SDS011;64453;51.944;9.796;2023-11-21T03:24:29;6.93;;;5.00;;
75818;SDS011;64453;51.944;9.796;2023-11-21T03:26:56;14.50;;;7.13;;
75818;SDS011;64453;51.944;9.796;2023-11-21T03:29:23;7.13;;;5.07;;
75818;SDS011;64453;51.944;9.796;2023-11-21T03:31:51;9.37;;;6.00;;
75818;SDS011;64453;51.944;9.796;2023-11-21T03:34:22;11.43;;;5.80;;
75818;SDS011;64453;51.944;9.796;2023-11-21T03:36:51;7.30;;;5.50;;
75818;SDS011;64453;51.944;9.796;2023-11-21T03:39:19;8.50;;;5.03;;
75818;SDS011;64453;51.944;9.796;2023-11-21T03:41:47;5.63;;;5.07;;
75818;SDS011;64453;51.944;9.796;2023-11-21T03:44:14;5.37;;;4.30;;
75818;SDS011;64453;51.944;9.796;2023-11-21T03:46:43;6.53;;;4.50;;
75818;SDS011;64453;51.944;9.796;2023-11-21T03:49:11;7.80;;;5.60;;
75818;SDS011;64453;51.944;9.796;2023-11-21T03:51:38;10.53;;;5.70;;
75818;SDS011;64453;51.944;9.796;2023-11-21T03:54:05;10.00;;;5.70;;
75818;SDS011;64453;51.944;9.796;2023-11-21T03:56:32;9.90;;;4.80;;
75818;SDS011;64453;51.944;9.796;2023-11-21T03:58:59;7.03;;;5.00;;
75818;SDS011;64453;51.944;9.796;2023-11-21T04:01:26;5.37;;;4.87;;
75818;SDS011;64453;51.944;9.796;2023-11-21T04:03:53;11.90;;;5.30;;
75818;SDS011;64453;51.944;9.796;2023-11-21T04:06:21;8.03;;;6.00;;
75818;SDS011;64453;51.944;9.796;2023-11-21T04:08:48;6.10;;;4.97;;
75818;SDS011;64453;51.944;9.796;2023-11-21T04:11:15;8.57;;;4.87;;
75818;SDS011;64453;51.944;9.796;2023-11-21T04:13:42;6.53;;;5.10;;
75818;SDS011;64453;51.944;9.796;2023-11-21T04:16:11;5.80;;;4.90;;
75818;SDS011;64453;51.944;9.796;2023-11-21T04:18:38;6.10;;;5.10;;
75818;SDS011;64453;51.944;9.796;2023-11-21T04:21:06;7.50;;;5.57;;
75818;SDS011;64453;51.944;9.796;2023-11-21T04:23:35;7.97;;;5.40;;
75818;SDS011;64453;51.944;9.796;2023-11-21T04:26:02;9.70;;;5.80;;
75818;SDS011;64453;51.944;9.796;2023-11-21T04:28:29;16.00;;;6.03;;
75818;SDS011;64453;51.944;9.796;2023-11-21T04:30:56;9.87;;;6.83;;
75818;SDS011;64453;51.944;9.796;2023-11-21T04:33:25;8.20;;;5.97;;
75818;SDS011;64453;51.944;9.796;2023-11-21T04:35:52;8.70;;;5.60;;
75818;SDS011;64453;51.944;9.796;2023-11-21T04:38:19;9.10;;;5.57;;
75818;SDS011;64453;51.944;9.796;2023-11-21T04:40:47;10.60;;;6.43;;
75818;SDS011;64453;51.944;9.796;2023-11-21T04:43:14;6.53;;;5.30;;
75818;SDS011;64453;51.944;9.796;2023-11-21T04:45:41;6.97;;;5.90;;
75818;SDS011;64453;51.944;9.796;2023-11-21T04:48:08;9.70;;;6.27;;
75818;SDS011;64453;51.944;9.796;2023-11-21T04:50:35;7.70;;;6.90;;
75818;SDS011;64453;51.944;9.796;2023-11-21T04:53:02;9.10;;;6.43;;
75818;SDS011;64453;51.944;9.796;2023-11-21T04:55:30;11.13;;;6.57;;
75818;SDS011;64453;51.944;9.796;2023-11-21T04:57:58;9.70;;;6.43;;
75818;SDS011;64453;51.944;9.796;2023-11-21T05:00:25;8.00;;;5.77;;
75818;SDS011;64453;51.944;9.796;2023-11-21T05:02:52;5.63;;;5.13;;
75818;SDS011;64453;51.944;9.796;2023-11-21T05:05:19;10.57;;;6.30;;
75818;SDS011;64453;51.944;9.796;2023-11-21T05:07:46;6.80;;;6.10;;
75818;SDS011;64453;51.944;9.796;2023-11-21T05:10:14;9.70;;;7.10;;
75818;SDS011;64453;51.944;9.796;2023-11-21T05:12:41;12.80;;;5.90;;
75818;SDS011;64453;51.944;9.796;2023-11-21T05:15:10;10.00;;;6.00;;
75818;SDS011;64453;51.944;9.796;2023-11-21T05:17:40;6.90;;;5.83;;
75818;SDS011;64453;51.944;9.796;2023-11-21T05:20:08;8.10;;;5.23;;
75818;SDS011;64453;51.944;9.796;2023-11-21T05:22:36;6.73;;;5.73;;
75818;SDS011;64453;51.944;9.796;2023-11-21T05:25:04;10.90;;;7.00;;
75818;SDS011;64453;51.944;9.796;2023-11-21T05:27:32;7.00;;;6.20;;
75818;SDS011;64453;51.944;9.796;2023-11-21T05:30:00;9.93;;;5.60;;
75818;SDS011;64453;51.944;9.796;2023-11-21T05:32:31;9.73;;;6.37;;
75818;SDS011;64453;51.944;9.796;2023-11-21T05:34:58;9.03;;;6.33;;
75818;SDS011;64453;51.944;9.796;2023-11-21T05:37:26;9.23;;;6.13;;
75818;SDS011;64453;51.944;9.796;2023-11-21T05:39:53;8.60;;;6.23;;
75818;SDS011;64453;51.944;9.796;2023-11-21T05:42:21;7.37;;;6.27;;
75818;SDS011;64453;51.944;9.796;2023-11-21T05:44:48;14.17;;;6.10;;
75818;SDS011;64453;51.944;9.796;2023-11-21T05:47:15;12.37;;;6.47;;
75818;SDS011;64453;51.944;9.796;2023-11-21T05:49:44;7.83;;;6.30;;
75818;SDS011;64453;51.944;9.796;2023-11-21T05:52:15;10.20;;;7.10;;
75818;SDS011;64453;51.944;9.796;2023-11-21T05:54:42;9.17;;;6.80;;
75818;SDS011;64453;51.944;9.796;2023-11-21T05:57:09;10.10;;;6.37;;
75818;SDS011;64453;51.944;9.796;2023-11-21T05:59:36;8.53;;;5.93;;
75818;SDS011;64453;51.944;9.796;2023-11-21T06:02:03;8.40;;;7.07;;
75818;SDS011;64453;51.944;9.796;2023-11-21T06:04:30;12.37;;;8.30;;
75818;SDS011;64453;51.944;9.796;2023-11-21T06:06:59;12.13;;;8.07;;
75818;SDS011;64453;51.944;9.796;2023-11-21T06:09:26;10.20;;;7.97;;
75818;SDS011;64453;51.944;9.796;2023-11-21T06:11:53;13.10;;;8.20;;
75818;SDS011;64453;51.944;9.796;2023-11-21T06:14:20;13.33;;;8.20;;
75818;SDS011;64453;51.944;9.796;2023-11-21T06:16:47;9.53;;;7.60;;
75818;SDS011;64453;51.944;9.796;2023-11-21T06:19:16;10.17;;;7.90;;
75818;SDS011;64453;51.944;9.796;2023-11-21T06:21:45;11.00;;;7.13;;
75818;SDS011;64453;51.944;9.796;2023-11-21T06:24:14;11.40;;;8.83;;
75818;SDS011;64453;51.944;9.796;2023-11-21T06:26:42;13.03;;;7.87;;
75818;SDS011;64453;51.944;9.796;2023-11-21T06:29:10;12.97;;;8.63;;
75818;SDS011;64453;51.944;9.796;2023-11-21T06:31:37;11.20;;;8.00;;
75818;SDS011;64453;51.944;9.796;2023-11-21T06:34:06;14.43;;;8.63;;
75818;SDS011;64453;51.944;9.796;2023-11-21T06:36:34;13.33;;;9.47;;
75818;SDS011;64453;51.944;9.796;2023-11-21T06:39:01;13.77;;;9.23;;
75818;SDS011;64453;51.944;9.796;2023-11-21T06:41:30;12.20;;;8.80;;
75818;SDS011;64453;51.944;9.796;2023-11-21T06:43:56;12.63;;;8.40;;
75818;SDS011;64453;51.944;9.796;2023-11-21T06:46:24;14.17;;;8.57;;
75818;SDS011;64453;51.944;9.796;2023-11-21T06:48:52;12.53;;;9.07;;
75818;SDS011;64453;51.944;9.796;2023-11-21T06:51:19;15.80;;;9.60;;
75818;SDS011;64453;51.944;9.796;2023-11-21T06:53:45;14.63;;;10.20;;
75818;SDS011;64453;51.944;9.796;2023-11-21T06:56:16;14.10;;;9.27;;
75818;SDS011;64453;51.944;9.796;2023-11-21T06:58:45;14.93;;;9.37;;
75818;SDS011;64453;51.944;9.796;2023-11-21T07:01:12;13.83;;;9.30;;
75818;SDS011;64453;51.944;9.796;2023-11-21T07:03:40;17.63;;;9.40;;
75818;SDS011;64453;51.944;9.796;2023-11-21T07:06:07;11.90;;;8.70;;
75818;SDS011;64453;51.944;9.796;2023-11-21T07:08:35;15.83;;;9.93;;
75818;SDS011;64453;51.944;9.796;2023-11-21T07:11:02;13.50;;;9.67;;
75818;SDS011;64453;51.944;9.796;2023-11-21T07:13:29;14.17;;;10.03;;
75818;SDS011;64453;51.944;9.796;2023-11-21T07:15:58;13.37;;;9.90;;
75818;SDS011;64453;51.944;9.796;2023-11-21T07:18:25;15.90;;;8.93;;
75818;SDS011;64453;51.944;9.796;2023-11-21T07:20:52;21.80;;;11.07;;
75818;SDS011;64453;51.944;9.796;2023-11-21T07:23:19;19.37;;;9.57;;
75818;SDS011;64453;51.944;9.796;2023-11-21T07:25:47;13.73;;;9.40;;
75818;SDS011;64453;51.944;9.796;2023-11-21T07:28:14;16.50;;;8.87;;
75818;SDS011;64453;51.944;9.796;2023-11-21T07:30:41;15.90;;;9.03;;
75818;SDS011;64453;51.944;9.796;2023-11-21T07:33:10;16.30;;;9.53;;
75818;SDS011;64453;51.944;9.796;2023-11-21T07:35:37;17.10;;;9.13;;
75818;SDS011;64453;51.944;9.796;2023-11-21T07:38:04;23.23;;;11.57;;
75818;SDS011;64453;51.944;9.796;2023-11-21T07:40:31;14.43;;;10.17;;
75818;SDS011;64453;51.944;9.796;2023-11-21T07:42:58;18.30;;;10.63;;
75818;SDS011;64453;51.944;9.796;2023-11-21T07:45:25;14.80;;;10.77;;
75818;SDS011;64453;51.944;9.796;2023-11-21T07:47:53;14.57;;;10.43;;
75818;SDS011;64453;51.944;9.796;2023-11-21T07:50:22;23.07;;;12.10;;
75818;SDS011;64453;51.944;9.796;2023-11-21T07:52:49;20.53;;;11.30;;
75818;SDS011;64453;51.944;9.796;2023-11-21T07:55:16;17.77;;;11.20;;
75818;SDS011;64453;51.944;9.796;2023-11-21T07:57:43;17.57;;;10.13;;
75818;SDS011;64453;51.944;9.796;2023-11-21T08:00:10;20.20;;;11.07;;
75818;SDS011;64453;51.944;9.796;2023-11-21T08:02:40;19.20;;;11.60;;
75818;SDS011;64453;51.944;9.796;2023-11-21T08:05:08;20.97;;;12.53;;
75818;SDS011;64453;51.944;9.796;2023-11-21T08:07:37;20.50;;;12.20;;
75818;SDS011;64453;51.944;9.796;2023-11-21T08:10:04;19.67;;;10.67;;
75818;SDS011;64453;51.944;9.796;2023-11-21T08:12:35;18.80;;;11.57;;
75818;SDS011;64453;51.944;9.796;2023-11-21T08:15:02;16.87;;;12.43;;
75818;SDS011;64453;51.944;9.796;2023-11-21T08:17:31;20.10;;;11.10;;
75818;SDS011;64453;51.944;9.796;2023-11-21T08:19:58;22.57;;;11.23;;
75818;SDS011;64453;51.944;9.796;2023-11-21T08:22:25;19.60;;;10.27;;
75818;SDS011;64453;51.944;9.796;2023-11-21T08:24:53;14.60;;;9.83;;
75818;SDS011;64453;51.944;9.796;2023-11-21T08:27:20;16.33;;;10.70;;
75818;SDS011;64453;51.944;9.796;2023-11-21T08:29:47;16.30;;;10.97;;
75818;SDS011;64453;51.944;9.796;2023-11-21T08:32:15;18.50;;;10.17;;
75818;SDS011;64453;51.944;9.796;2023-11-21T08:34:42;17.50;;;9.93;;
75818;SDS011;64453;51.944;9.796;2023-11-21T08:37:10;16.80;;;10.03;;
75818;SDS011;64453;51.944;9.796;2023-11-21T08:39:37;16.50;;;10.70;;
75818;SDS011;64453;51.944;9.796;2023-11-21T08:42:05;16.13;;;10.33;;
75818;SDS011;64453;51.944;9.796;2023-11-21T08:44:33;15.27;;;10.30;;
75818;SDS011;64453;51.944;9.796;2023-11-21T08:47:00;17.00;;;12.03;;
75818;SDS011;64453;51.944;9.796;2023-11-21T08:49:27;21.20;;;13.10;;
75818;SDS011;64453;51.944;9.796;2023-11-21T08:51:55;16.43;;;11.43;;
75818;SDS011;64453;51.944;9.796;2023-11-21T08:54:24;20.00;;;12.23;;
75818;SDS011;64453;51.944;9.796;2023-11-21T08:56:51;20.90;;;11.73;;
75818;SDS011;64453;51.944;9.796;2023-11-21T08:59:19;17.83;;;11.13;;
75818;SDS011;64453;51.944;9.796;2023-11-21T09:01:46;15.77;;;10.67;;
75818;SDS011;64453;51.944;9.796;2023-11-21T09:04:13;10.57;;;8.07;;
75818;SDS011;64453;51.944;9.796;2023-11-21T09:06:40;10.80;;;7.47;;
75818;SDS011;64453;51.944;9.796;2023-11-21T09:09:07;8.40;;;6.70;;
75818;SDS011;64453;51.944;9.796;2023-11-21T09:11:35;8.10;;;6.70;;
75818;SDS011;64453;51.944;9.796;2023-11-21T09:14:02;8.20;;;6.87;;
75818;SDS011;64453;51.944;9.796;2023-11-21T09:16:31;8.70;;;4.90;;
75818;SDS011;64453;51.944;9.796;2023-11-21T09:18:58;4.60;;;4.10;;
75818;SDS011;64453;51.944;9.796;2023-11-21T09:21:25;9.23;;;4.13;;
75818;SDS011;64453;51.944;9.796;2023-11-21T09:23:52;5.07;;;3.47;;
75818;SDS011;64453;51.944;9.796;2023-11-21T09:26:19;2.90;;;2.70;;
75818;SDS011;64453;51.944;9.796;2023-11-21T09:28:46;2.60;;;2.40;;
75818;SDS011;64453;51.944;9.796;2023-11-21T09:31:13;2.77;;;2.50;;
75818;SDS011;64453;51.944;9.796;2023-11-21T09:33:42;2.17;;;1.97;;
75818;SDS011;64453;51.944;9.796;2023-11-21T09:36:11;1.90;;;1.80;;
75818;SDS011;64453;51.944;9.796;2023-11-21T09:38:39;1.83;;;1.77;;
75818;SDS011;64453;51.944;9.796;2023-11-21T09:41:08;1.87;;;1.77;;
75818;SDS011;64453;51.944;9.796;2023-11-21T09:43:47;1.10;;;1.10;;
75818;SDS011;64453;51.944;9.796;2023-11-21T09:46:19;1.47;;;1.10;;
75818;SDS011;64453;51.944;9.796;2023-11-21T09:48:50;1.40;;;1.30;;
75818;SDS011;64453;51.944;9.796;2023-11-21T09:51:18;1.00;;;1.00;;
75818;SDS011;64453;51.944;9.796;2023-11-21T09:53:48;1.10;;;1.00;;
75818;SDS011;64453;51.944;9.796;2023-11-21T09:56:18;1.30;;;1.30;;
75818;SDS011;64453;51.944;9.796;2023-11-21T09:58:50;0.90;;;0.90;;
75818;SDS011;64453;51.944;9.796;2023-11-21T10:01:19;1.43;;;1.33;;
75818;SDS011;64453;51.944;9.796;2023-11-21T10:03:47;1.90;;;1.80;;
75818;SDS011;64453;51.944;9.796;2023-11-21T10:06:16;1.90;;;1.80;;
75818;SDS011;64453;51.944;9.796;2023-11-21T10:08:45;2.57;;;2.37;;
75818;SDS011;64453;51.944;9.796;2023-11-21T10:11:12;2.17;;;2.07;;
75818;SDS011;64453;51.944;9.796;2023-11-21T10:13:41;2.50;;;2.30;;
75818;SDS011;64453;51.944;9.796;2023-11-21T10:16:11;2.40;;;2.20;;
75818;SDS011;64453;51.944;9.796;2023-11-21T10:18:42;1.80;;;1.70;;
75818;SDS011;64453;51.944;9.796;2023-11-21T10:21:11;1.90;;;1.80;;
75818;SDS011;64453;51.944;9.796;2023-11-21T10:23:40;2.07;;;1.97;;
75818;SDS011;64453;51.944;9.796;2023-11-21T10:26:08;1.70;;;1.60;;
75818;SDS011;64453;51.944;9.796;2023-11-21T10:28:41;1.50;;;1.40;;
75818;SDS011;64453;51.944;9.796;2023-11-21T10:31:21;1.93;;;1.83;;
75818;SDS011;64453;51.944;9.796;2023-11-21T10:33:49;2.17;;;2.00;;
75818;SDS011;64453;51.944;9.796;2023-11-21T10:36:24;4.50;;;2.13;;
75818;SDS011;64453;51.944;9.796;2023-11-21T10:38:53;2.13;;;2.00;;
75818;SDS011;64453;51.944;9.796;2023-11-21T10:41:22;1.27;;;1.27;;
75818;SDS011;64453;51.944;9.796;2023-11-21T10:43:52;2.07;;;1.97;;
75818;SDS011;64453;51.944;9.796;2023-11-21T10:46:21;1.90;;;1.80;;
75818;SDS011;64453;51.944;9.796;2023-11-21T10:48:51;2.87;;;2.67;;
75818;SDS011;64453;51.944;9.796;2023-11-21T10:51:21;3.90;;;2.80;;
75818;SDS011;64453;51.944;9.796;2023-11-21T10:53:49;4.20;;;3.07;;
75818;SDS011;64453;51.944;9.796;2023-11-21T10:56:18;4.73;;;3.90;;
75818;SDS011;64453;51.944;9.796;2023-11-21T10:58:49;6.20;;;4.20;;
75818;SDS011;64453;51.944;9.796;2023-11-21T11:01:17;4.33;;;3.70;;
75818;SDS011;64453;51.944;9.796;2023-11-21T11:03:47;5.87;;;4.57;;
75818;SDS011;64453;51.944;9.796;2023-11-21T11:06:14;7.33;;;4.07;;
75818;SDS011;64453;51.944;9.796;2023-11-21T11:08:42;5.10;;;4.40;;
75818;SDS011;64453;51.944;9.796;2023-11-21T11:11:10;7.70;;;4.77;;
75818;SDS011;64453;51.944;9.796;2023-11-21T11:13:40;6.80;;;4.50;;
75818;SDS011;64453;51.944;9.796;2023-11-21T11:16:11;6.33;;;4.80;;
75818;SDS011;64453;51.944;9.796;2023-11-21T11:18:42;10.20;;;5.00;;
75818;SDS011;64453;51.944;9.796;2023-11-21T11:21:11;5.70;;;5.00;;
75818;SDS011;64453;51.944;9.796;2023-11-21T11:23:58;6.40;;;4.47;;
75818;SDS011;64453;51.944;9.796;2023-11-21T11:26:42;7.90;;;5.80;;
75818;SDS011;64453;51.944;9.796;2023-11-21T11:29:23;6.20;;;5.50;;
75818;SDS011;64453;51.944;9.796;2023-11-21T11:32:03;6.70;;;5.33;;
75818;SDS011;64453;51.944;9.796;2023-11-21T11:34:41;7.43;;;6.10;;
75818;SDS011;64453;51.944;9.796;2023-11-21T11:37:15;5.87;;;5.27;;
75818;SDS011;64453;51.944;9.796;2023-11-21T11:39:42;7.30;;;5.93;;
75818;SDS011;64453;51.944;9.796;2023-11-21T11:42:11;8.17;;;6.40;;
75818;SDS011;64453;51.944;9.796;2023-11-21T11:44:48;5.40;;;4.90;;
75818;SDS011;64453;51.944;9.796;2023-11-21T11:47:21;8.23;;;6.03;;
75818;SDS011;64453;51.944;9.796;2023-11-21T11:49:56;6.30;;;5.70;;
75818;SDS011;64453;51.944;9.796;2023-11-21T11:52:34;8.27;;;5.80;;
75818;SDS011;64453;51.944;9.796;2023-11-21T11:55:04;5.63;;;5.13;;
75818;SDS011;64453;51.944;9.796;2023-11-21T11:57:35;4.80;;;4.40;;
75818;SDS011;64453;51.944;9.796;2023-11-21T12:00:08;4.77;;;4.00;;
75818;SDS011;64453;51.944;9.796;2023-11-21T12:02:41;5.17;;;4.50;;
75818;SDS011;64453;51.944;9.796;2023-11-21T12:05:10;5.73;;;4.73;;
75818;SDS011;64453;51.944;9.796;2023-11-21T12:07:44;4.60;;;4.20;;
75818;SDS011;64453;51.944;9.796;2023-11-21T12:10:13;4.80;;;4.40;;
75818;SDS011;64453;51.944;9.796;2023-11-21T12:12:43;5.43;;;4.23;;
75818;SDS011;64453;51.944;9.796;2023-11-21T12:15:16;4.33;;;3.93;;
75818;SDS011;64453;51.944;9.796;2023-11-21T12:17:44;3.83;;;3.37;;
75818;SDS011;64453;51.944;9.796;2023-11-21T12:20:11;4.50;;;4.10;;
75818;SDS011;64453;51.944;9.796;2023-11-21T12:22:43;4.27;;;3.93;;
75818;SDS011;64453;51.944;9.796;2023-11-21T12:25:16;5.00;;;4.50;;
75818;SDS011;64453;51.944;9.796;2023-11-21T12:27:45;4.37;;;4.07;;
75818;SDS011;64453;51.944;9.796;2023-11-21T12:30:16;4.60;;;4.20;;
75818;SDS011;64453;51.944;9.796;2023-11-21T12:32:47;4.73;;;4.20;;
75818;SDS011;64453;51.944;9.796;2023-11-21T12:35:16;4.30;;;3.90;;
75818;SDS011;64453;51.944;9.796;2023-11-21T12:37:44;4.60;;;4.20;;
75818;SDS011;64453;51.944;9.796;2023-11-21T12:40:13;5.20;;;3.30;;
75818;SDS011;64453;51.944;9.796;2023-11-21T12:42:42;4.37;;;4.03;;
75818;SDS011;64453;51.944;9.796;2023-11-21T12:45:19;4.33;;;4.00;;
75818;SDS011;64453;51.944;9.796;2023-11-21T12:47:50;8.63;;;6.00;;
75818;SDS011;64453;51.944;9.796;2023-11-21T12:50:22;5.30;;;4.80;;
75818;SDS011;64453;51.944;9.796;2023-11-21T12:52:54;5.97;;;4.80;;
75818;SDS011;64453;51.944;9.796;2023-11-21T12:55:25;6.70;;;4.70;;
75818;SDS011;64453;51.944;9.796;2023-11-21T12:57:52;4.13;;;3.60;;
75818;SDS011;64453;51.944;9.796;2023-11-21T13:00:33;3.70;;;3.40;;
75818;SDS011;64453;51.944;9.796;2023-11-21T13:03:02;4.20;;;3.80;;
75818;SDS011;64453;51.944;9.796;2023-11-21T13:05:32;4.70;;;4.30;;
75818;SDS011;64453;51.944;9.796;2023-11-21T13:08:01;4.33;;;3.90;;
75818;SDS011;64453;51.944;9.796;2023-11-21T13:10:32;4.83;;;4.43;;
75818;SDS011;64453;51.944;9.796;2023-11-21T13:13:01;5.23;;;4.10;;
75818;SDS011;64453;51.944;9.796;2023-11-21T13:15:34;4.10;;;3.67;;
75818;SDS011;64453;51.944;9.796;2023-11-21T13:18:05;4.50;;;3.80;;
75818;SDS011;64453;51.944;9.796;2023-11-21T13:20:36;5.60;;;4.60;;
75818;SDS011;64453;51.944;9.796;2023-11-21T13:23:07;4.60;;;4.20;;
75818;SDS011;64453;51.944;9.796;2023-11-21T13:25:36;6.27;;;4.97;;
75818;SDS011;64453;51.944;9.796;2023-11-21T13:28:06;5.13;;;4.67;;
75818;SDS011;64453;51.944;9.796;2023-11-21T13:30:36;4.67;;;4.27;;
75818;SDS011;64453;51.944;9.796;2023-11-21T13:33:05;5.20;;;4.60;;
75818;SDS011;64453;51.944;9.796;2023-11-21T13:35:33;5.93;;;4.43;;
75818;SDS011;64453;51.944;9.796;2023-11-21T13:38:07;4.83;;;4.13;;
75818;SDS011;64453;51.944;9.796;2023-11-21T13:40:36;4.23;;;3.83;;
75818;SDS011;64453;51.944;9.796;2023-11-21T13:43:08;4.07;;;3.67;;
75818;SDS011;64453;51.944;9.796;2023-11-21T13:45:37;3.23;;;2.93;;
75818;SDS011;64453;51.944;9.796;2023-11-21T13:48:05;4.53;;;4.00;;
75818;SDS011;64453;51.944;9.796;2023-11-21T13:50:35;3.83;;;3.53;;
75818;SDS011;64453;51.944;9.796;2023-11-21T13:53:02;4.10;;;3.47;;
75818;SDS011;64453;51.944;9.796;2023-11-21T13:55:35;5.63;;;3.30;;
75818;SDS011;64453;51.944;9.796;2023-11-21T13:58:04;3.90;;;3.50;;
75818;SDS011;64453;51.944;9.796;2023-11-21T14:00:38;3.80;;;3.50;;
75818;SDS011;64453;51.944;9.796;2023-11-21T14:03:10;3.27;;;2.97;;
75818;SDS011;64453;51.944;9.796;2023-11-21T14:05:44;3.87;;;3.10;;
75818;SDS011;64453;51.944;9.796;2023-11-21T14:08:16;3.87;;;3.57;;
75818;SDS011;64453;51.944;9.796;2023-11-21T14:10:46;4.27;;;3.70;;
75818;SDS011;64453;51.944;9.796;2023-11-21T14:13:16;3.50;;;3.20;;
75818;SDS011;64453;51.944;9.796;2023-11-21T14:15:45;4.03;;;3.67;;
75818;SDS011;64453;51.944;9.796;2023-11-21T14:18:16;4.23;;;3.80;;
75818;SDS011;64453;51.944;9.796;2023-11-21T14:20:51;4.67;;;3.90;;
75818;SDS011;64453;51.944;9.796;2023-11-21T14:23:18;3.77;;;3.43;;
75818;SDS011;64453;51.944;9.796;2023-11-21T14:25:46;3.97;;;3.67;;
75818;SDS011;64453;51.944;9.796;2023-11-21T14:28:13;3.80;;;3.50;;
75818;SDS011;64453;51.944;9.796;2023-11-21T14:30:40;3.53;;;3.33;;
75818;SDS011;64453;51.944;9.796;2023-11-21T14:33:09;3.13;;;2.93;;
75818;SDS011;64453;51.944;9.796;2023-11-21T14:35:36;4.97;;;3.30;;
75818;SDS011;64453;51.944;9.796;2023-11-21T14:38:03;3.80;;;3.50;;
75818;SDS011;64453;51.944;9.796;2023-11-21T14:40:31;4.00;;;3.60;;
75818;SDS011;64453;51.944;9.796;2023-11-21T14:43:00;3.70;;;3.30;;
75818;SDS011;64453;51.944;9.796;2023-11-21T14:45:30;4.73;;;4.00;;
75818;SDS011;64453;51.944;9.796;2023-11-21T14:47:57;3.70;;;3.40;;
75818;SDS011;64453;51.944;9.796;2023-11-21T14:50:33;3.37;;;3.10;;
75818;SDS011;64453;51.944;9.796;2023-11-21T14:53:35;3.70;;;3.40;;